Terminal Aerodrome Forecast
Issued by NWS

Home | Current Version | Previous Version | Text Only | Print | Product List | Glossary On
Versions: 1 2 3 4 5 6 7 8 9 10 11 12 13 14 15 16 17 18 19 20 21 22 23 24 25 26 27 28
000
FTUS41 KOKX 300600 RRA
TAFGON
TAF
KGON 300605Z 3006/3106 16004KT P6SM SCT025 SCT250
      TEMPO 3008/3012 5SM BR
     FM301400 16008KT P6SM SCT025 SCT250
     FM301700 18010KT P6SM SCT035 SCT250
     FM310000 20007KT P6SM FEW020 SCT150 BKN250=

USA.gov is the U.S. government's official web portal to all federal, state and local government web resources and services.